Aviation Digital Data Service (ADDS)

Output produced by METARs form (0057 UTC 22 September 2017)
found at http://www.aviationweather.gov/adds/metars/
 
KHBG 212320Z 2200/2224 06003KT P6SM FEW050 
     FM221100 00000KT 4SM BR FEW007 
     FM221400 05003KT P6SM SKC 
     FM221800 06004KT P6SM VCTS SCT050CB
       
KHIE 212332Z 2200/2224 00000KT P6SM BKN250 
     FM220800 00000KT 1/2SM FG OVC002 
     FM221300 01006KT P6SM BKN250
       
TAF AMD KHIF 212155Z 2121/2303 33012KT 9999 BKN014 OVC040 620604 QNH2971INS 
     TEMPO 2121/2202 SCT014 
     BECMG 2201/2202 30012G20KT 8000 -RA SCT008 BKN012 620508 QNH2975INS 
     BECMG 2217/2218 VRB06KT 9999 NSW FEW015 BKN025 BKN080 620306 QNH2990INS 
     BECMG 2223/2224 VRB06KT 9999 FEW050 FEW120 QNH2997INS TX11/2122Z TN05/2215Z
       
KHIO 212332Z 2200/2224 VRB04KT P6SM SCT025 BKN045 BKN080 
     FM220300 00000KT P6SM SCT040 BKN080 
     FM221200 00000KT 1/2SM FG OVC002 
     FM221700 00000KT 2SM BR BKN003 OVC015 
     FM221900 VRB02KT P6SM SCT020 
     FM222100 VRB04KT P6SM SCT035
       
KHKS 212320Z 2200/2224 00000KT P6SM SKC 
     FM222000 03003KT P6SM VCTS SCT050CB
       
KHKY 212334Z 2200/2224 VRB03KT P6SM SCT050 
     FM220900 35003KT 4SM BR SCT050 
     FM221300 VRB03KT P6SM FEW050 
     FM221800 VRB03KT P6SM FEW045
       
KHLG 212320Z 2200/2224 VRB02KT P6SM SKC 
     FM220600 00000KT 3SM BR SKC 
     FM220700 00000KT 1SM BR SKC 
     TEMPO 2208/2212 1/4SM FG VV001 
     FM221400 36004KT P6SM SKC
       
KHLN 212344Z 2200/2224 VRB04KT P6SM SCT070 BKN120 
     FM220600 34010G20KT P6SM -SHRA SCT015 OVC030 
     FM221200 35009KT 2SM -RASN BR SCT003 OVC015 
     FM221600 35009KT 4SM -RA BR SCT006 OVC015
       
TAF KHMN 212000Z 2120/2302 23012KT 9999 FEW100 SCT140 QNH2990INS 
     TEMPO 2120/2201 23015G25KT 520009 
     BECMG 2202/2203 16009KT 9999 FEW100 QNH2993INS 
     BECMG 2218/2219 22012G20KT 9999 FEW080 QNH2989INS 
     TEMPO 2300/2302 21015G25KT SCT080 520009 TX35/2121Z TN17/2212Z
       
KHND 212320Z 2200/2224 24023G35KT P6SM SCT090 SCT150 
     FM220200 21020G28KT P6SM FEW090 
     FM220600 27010KT P6SM SKC 
     FM221600 02006KT P6SM SKC
       
KHOB 212320Z 2200/2224 15011KT P6SM FEW100 
     FM221200 16011KT P6SM BKN005 
     FM221600 14015G23KT P6SM SCT060
       
KHON 212320Z 2200/2224 14009KT P6SM FEW050 
     FM221400 16013G19KT P6SM FEW120 
     FM221800 19016G27KT P6SM FEW120 
     FM222200 23013G19KT P6SM SCT120
       
TAF KHOP 220000Z 2200/2306 VRB06KT 9999 SKC QNH2999INS 
     BECMG 2207/2208 06006KT 6000 BR FEW030 QNH3004INS 
     BECMG 2212/2213 VRB06KT 9999 NSW SCT035 QNH3001INS TX31/2221Z TN20/2212Z
       
KHOT 212329Z 2200/2224 18004KT P6SM SKC 
     FM220900 00000KT 4SM BR SCT005 
     TEMPO 2209/2213 1SM BR BKN005 
     FM221400 18007KT P6SM SCT015 BKN050 
     FM221700 17007KT P6SM SCT050
       
KHOU 212336Z 2200/2224 15005KT P6SM SCT070 BKN100 
     FM221100 10005KT 6SM BR SCT020 
     FM221500 15007KT P6SM SCT030 
     FM221900 14008KT P6SM VCSH BKN035
       
KHPN 212332Z 2200/2224 35010KT P6SM SCT030 SCT150 BKN250 
     FM221400 35014G20KT P6SM SCT040 BKN150 AMD NOT SKED
       
KHQM 212345Z 2200/2224 23009KT P6SM SKC 
     FM220600 31006KT P6SM FEW005 SCT200 
     FM221000 06005KT 6SM BR FEW006 OVC012 
     FM221200 VRB04KT 5SM BR OVC006 
     FM221700 24004KT P6SM SCT006 BKN015
       
KHRL 212329Z 2200/2224 15016G24KT P6SM SCT040 BKN250 
     FM220200 13009KT P6SM FEW050 SCT250 
     FM221400 14012G18KT P6SM SCT035
       
KHRO 212329Z 2200/2224 17008KT P6SM SKC 
     FM220200 15004KT P6SM SKC 
     FM220900 15003KT 4SM BR SCT005 
     FM221400 16008KT P6SM SCT050
       
TAF KHST 220000Z 2200/2306 04006KT 9999 SCT050 QNH2984INS 
     BECMG 2217/2218 05009KT 9999 SCT050 QNH2981INS 
     TEMPO 2218/2222 03010G15KT 6000 -TSRA BKN040CB 
     BECMG 2222/2223 05006KT 9999 SCT040 QNH2981INS TX33/2218Z TN26/2212Z
       
KHSV 212320Z 2200/2224 VRB02KT P6SM SCT250 
     FM220800 VRB02KT 3SM BR SKC 
     FM221300 VRB03KT P6SM SKC
       
KHTS 212339Z 2200/2224 00000KT P6SM SKC 
     FM220700 00000KT 5SM BR FEW250 
     FM220900 00000KT 1/4SM FG VV001 
     FM221230 00000KT 3SM BR BKN002 
     FM221300 00000KT P6SM FEW250
       
KHUF 212325Z 2200/2224 17004KT P6SM FEW200 
     TEMPO 2210/2213 4SM BR 
     FM221500 18004KT P6SM FEW040 
     FM222000 12004KT P6SM FEW045
       
KHUM 212320Z 2200/2224 25004KT P6SM SCT035 
     TEMPO 2209/2213 5SM BR 
     FM221400 03005KT P6SM FEW030
       
KHUT 212320Z 2200/2224 17019G26KT P6SM FEW070 
     FM220800 17015KT P6SM SKC 
     FM221500 18017G24KT P6SM SCT070
       
KHVR 212344Z 2200/2224 33007KT P6SM SCT070 BKN180 
     FM220700 36006KT P6SM SCT035 BKN050 
     PROB30 2212/2216 4SM -RASN BR BKN025 
     FM221600 03008KT P6SM -SHRA SCT008 OVC012 
     FM221900 04009KT P6SM OVC020 
     PROB30 2219/2224 4SM -RA OVC012
       
KHYA 212331Z 2200/2224 03028G44KT 3SM -RA BR OVC025 
     FM220300 03026G43KT 5SM -RA BR OVC015 
     FM221000 03024G39KT 4SM -SHRA BR OVC010 
     FM221300 02023G38KT 2SM -SHRA BR OVC010 
     FM222200 03020G33KT 3SM BR VCSH OVC010
       
KHYR 212324Z 2200/2224 18008G14KT P6SM BKN028 
     FM220200 15007KT P6SM VCSH SCT025 SCT100 WS020/18040KT 
     FM220400 15007KT P6SM -SHRA VCTS BKN020CB BKN100 WS020/19045KT 
     FM221100 17005KT 3SM BR VCSH BKN015 BKN100 
     FM221500 15011KT P6SM BKN020 
     FM221600 16012KT P6SM SCT045
       
KHYS 212320Z 2200/2224 18021G30KT P6SM SKC 
     FM220400 18016KT P6SM FEW250 WS020/19045KT 
     FM221300 18015G23KT P6SM FEW200
       
KHUL 212320Z 2200/2224 VRB02KT P6SM SKC 
     FM220700 00000KT 5SM BR FEW001 
     FM221100 09004KT P6SM SKC